sensor_id;sensor_type;location;lat;lon;timestamp;pressure;altitude;pressure_sealevel;temperature;humidity
33155;BME280;19511;42.682;23.332;2023-03-23T00:01:12;95059.16;;;5.06;100.00
33155;BME280;19511;42.682;23.332;2023-03-23T00:03:39;95158.88;;;5.70;100.00
33155;BME280;19511;42.682;23.332;2023-03-23T00:06:06;95158.22;;;5.84;100.00
33155;BME280;19511;42.682;23.332;2023-03-23T00:08:34;95157.78;;;5.78;100.00
33155;BME280;19511;42.682;23.332;2023-03-23T00:11:03;95149.78;;;5.62;100.00
33155;BME280;19511;42.682;23.332;2023-03-23T00:13:29;95125.28;;;5.39;100.00
33155;BME280;19511;42.682;23.332;2023-03-23T00:15:55;95154.06;;;5.56;100.00
33155;BME280;19511;42.682;23.332;2023-03-23T00:18:22;95154.94;;;5.64;100.00
33155;BME280;19511;42.682;23.332;2023-03-23T00:20:50;95157.56;;;5.53;100.00
33155;BME280;19511;42.682;23.332;2023-03-23T00:23:20;95133.72;;;5.19;100.00
33155;BME280;19511;42.682;23.332;2023-03-23T00:25:52;95160.94;;;5.39;100.00
33155;BME280;19511;42.682;23.332;2023-03-23T00:28:25;95163.59;;;5.28;100.00
33155;BME280;19511;42.682;23.332;2023-03-23T00:31:02;95163.47;;;5.17;100.00
33155;BME280;19511;42.682;23.332;2023-03-23T00:33:32;95166.97;;;5.14;100.00
33155;BME280;19511;42.682;23.332;2023-03-23T00:36:13;95144.53;;;5.05;100.00
33155;BME280;19511;42.682;23.332;2023-03-23T00:38:40;95172.13;;;5.23;100.00
33155;BME280;19511;42.682;23.332;2023-03-23T00:41:06;95176.84;;;5.22;100.00
33155;BME280;19511;42.682;23.332;2023-03-23T00:43:33;95071.84;;;4.50;100.00
33155;BME280;19511;42.682;23.332;2023-03-23T00:46:01;95170.94;;;5.20;100.00
33155;BME280;19511;42.682;23.332;2023-03-23T00:48:28;95174.19;;;5.30;100.00
33155;BME280;19511;42.682;23.332;2023-03-23T00:50:55;95081.75;;;4.58;100.00
33155;BME280;19511;42.682;23.332;2023-03-23T00:53:21;95157.91;;;5.10;100.00
33155;BME280;19511;42.682;23.332;2023-03-23T00:55:48;95180.34;;;5.23;100.00
33155;BME280;19511;42.682;23.332;2023-03-23T00:58:15;95174.56;;;5.28;100.00
33155;BME280;19511;42.682;23.332;2023-03-23T01:00:41;95187.63;;;5.42;100.00
33155;BME280;19511;42.682;23.332;2023-03-23T01:03:11;95188.03;;;5.44;100.00
33155;BME280;19511;42.682;23.332;2023-03-23T01:05:45;95174.25;;;5.37;100.00
33155;BME280;19511;42.682;23.332;2023-03-23T01:08:13;95099.34;;;4.92;100.00
33155;BME280;19511;42.682;23.332;2023-03-23T01:10:39;95179.81;;;5.44;100.00
33155;BME280;19511;42.682;23.332;2023-03-23T01:13:06;95176.97;;;5.37;100.00
33155;BME280;19511;42.682;23.332;2023-03-23T01:15:32;95179.38;;;5.38;100.00
33155;BME280;19511;42.682;23.332;2023-03-23T01:17:57;95073.88;;;4.53;100.00
33155;BME280;19511;42.682;23.332;2023-03-23T01:20:24;95081.97;;;4.77;100.00
33155;BME280;19511;42.682;23.332;2023-03-23T01:22:52;95181.31;;;5.38;100.00
33155;BME280;19511;42.682;23.332;2023-03-23T01:25:18;95170.19;;;5.23;100.00
33155;BME280;19511;42.682;23.332;2023-03-23T01:27:47;95171.50;;;5.37;100.00
33155;BME280;19511;42.682;23.332;2023-03-23T01:30:13;95166.97;;;5.18;100.00
33155;BME280;19511;42.682;23.332;2023-03-23T01:32:46;95162.66;;;5.13;100.00
33155;BME280;19511;42.682;23.332;2023-03-23T01:35:15;95165.81;;;5.19;100.00
33155;BME280;19511;42.682;23.332;2023-03-23T01:37:40;95151.81;;;5.28;100.00
33155;BME280;19511;42.682;23.332;2023-03-23T01:40:06;95149.94;;;5.35;100.00
33155;BME280;19511;42.682;23.332;2023-03-23T01:42:34;95052.94;;;4.72;100.00
33155;BME280;19511;42.682;23.332;2023-03-23T01:45:34;95162.94;;;5.42;100.00
33155;BME280;19511;42.682;23.332;2023-03-23T01:48:11;95159.41;;;5.42;100.00
33155;BME280;19511;42.682;23.332;2023-03-23T01:50:59;95056.31;;;4.96;100.00
33155;BME280;19511;42.682;23.332;2023-03-23T01:53:31;95159.38;;;5.79;100.00
33155;BME280;19511;42.682;23.332;2023-03-23T01:56:01;95145.19;;;5.73;100.00
33155;BME280;19511;42.682;23.332;2023-03-23T01:58:29;95069.91;;;5.22;100.00
33155;BME280;19511;42.682;23.332;2023-03-23T02:00:57;95149.50;;;5.71;100.00
33155;BME280;19511;42.682;23.332;2023-03-23T02:03:27;95157.44;;;5.83;100.00
33155;BME280;19511;42.682;23.332;2023-03-23T02:05:54;95068.13;;;5.41;100.00
33155;BME280;19511;42.682;23.332;2023-03-23T02:08:24;95051.66;;;5.41;100.00
33155;BME280;19511;42.682;23.332;2023-03-23T02:10:53;95150.69;;;6.18;100.00
33155;BME280;19511;42.682;23.332;2023-03-23T02:13:18;95043.94;;;5.58;100.00
33155;BME280;19511;42.682;23.332;2023-03-23T02:16:09;95157.06;;;6.30;100.00
33155;BME280;19511;42.682;23.332;2023-03-23T02:27:11;95139.19;;;6.05;100.00
33155;BME280;19511;42.682;23.332;2023-03-23T02:35:21;95152.38;;;5.89;100.00
33155;BME280;19511;42.682;23.332;2023-03-23T02:37:58;95054.16;;;5.16;100.00
33155;BME280;19511;42.682;23.332;2023-03-23T02:40:28;95145.50;;;5.65;100.00
33155;BME280;19511;42.682;23.332;2023-03-23T02:42:56;95164.75;;;5.68;100.00
33155;BME280;19511;42.682;23.332;2023-03-23T02:45:24;95057.13;;;5.00;100.00
33155;BME280;19511;42.682;23.332;2023-03-23T02:47:53;95169.50;;;5.75;100.00
33155;BME280;19511;42.682;23.332;2023-03-23T02:50:22;95151.56;;;5.40;100.00
33155;BME280;19511;42.682;23.332;2023-03-23T02:52:50;95177.66;;;5.27;100.00
33155;BME280;19511;42.682;23.332;2023-03-23T02:55:18;95172.38;;;5.07;100.00
33155;BME280;19511;42.682;23.332;2023-03-23T02:57:45;95172.59;;;4.95;100.00
33155;BME280;19511;42.682;23.332;2023-03-23T03:00:13;95188.31;;;4.98;100.00
33155;BME280;19511;42.682;23.332;2023-03-23T03:02:44;95187.13;;;4.99;100.00
33155;BME280;19511;42.682;23.332;2023-03-23T03:08:12;95200.28;;;4.86;100.00
33155;BME280;19511;42.682;23.332;2023-03-23T03:10:46;95091.41;;;4.18;100.00
33155;BME280;19511;42.682;23.332;2023-03-23T03:13:20;95205.66;;;4.75;100.00
33155;BME280;19511;42.682;23.332;2023-03-23T03:16:00;95205.34;;;4.53;100.00
33155;BME280;19511;42.682;23.332;2023-03-23T03:19:05;95087.69;;;3.76;100.00
33155;BME280;19511;42.682;23.332;2023-03-23T03:21:23;95212.44;;;4.58;100.00
33155;BME280;19511;42.682;23.332;2023-03-23T03:23:54;95204.91;;;4.51;100.00
33155;BME280;19511;42.682;23.332;2023-03-23T03:26:22;95187.66;;;4.47;100.00
33155;BME280;19511;42.682;23.332;2023-03-23T03:28:52;95205.25;;;4.46;100.00
33155;BME280;19511;42.682;23.332;2023-03-23T03:31:20;95203.97;;;4.40;100.00
33155;BME280;19511;42.682;23.332;2023-03-23T03:33:47;95100.97;;;3.78;100.00
33155;BME280;19511;42.682;23.332;2023-03-23T03:36:18;95217.66;;;4.40;100.00
33155;BME280;19511;42.682;23.332;2023-03-23T03:38:48;95113.72;;;3.93;100.00
33155;BME280;19511;42.682;23.332;2023-03-23T03:41:16;95209.75;;;4.62;100.00
33155;BME280;19511;42.682;23.332;2023-03-23T03:43:41;95127.31;;;4.13;100.00
33155;BME280;19511;42.682;23.332;2023-03-23T03:46:07;95152.19;;;4.31;100.00
33155;BME280;19511;42.682;23.332;2023-03-23T03:48:33;95211.78;;;4.65;100.00
33155;BME280;19511;42.682;23.332;2023-03-23T03:50:58;95187.78;;;4.58;100.00
33155;BME280;19511;42.682;23.332;2023-03-23T03:53:28;95100.19;;;4.04;100.00
33155;BME280;19511;42.682;23.332;2023-03-23T03:55:54;95205.03;;;4.58;100.00
33155;BME280;19511;42.682;23.332;2023-03-23T03:58:22;95205.34;;;4.53;100.00
33155;BME280;19511;42.682;23.332;2023-03-23T04:00:48;95198.22;;;4.49;100.00
33155;BME280;19511;42.682;23.332;2023-03-23T04:03:14;95208.16;;;4.61;100.00
33155;BME280;19511;42.682;23.332;2023-03-23T04:05:42;95177.06;;;4.46;100.00
33155;BME280;19511;42.682;23.332;2023-03-23T04:08:10;95185.59;;;4.71;100.00
33155;BME280;19511;42.682;23.332;2023-03-23T04:10:36;95144.78;;;4.32;100.00
33155;BME280;19511;42.682;23.332;2023-03-23T04:13:02;95196.09;;;4.65;100.00
33155;BME280;19511;42.682;23.332;2023-03-23T04:15:30;95184.78;;;4.67;100.00
33155;BME280;19511;42.682;23.332;2023-03-23T04:17:56;95093.09;;;4.00;100.00
33155;BME280;19511;42.682;23.332;2023-03-23T04:20:22;95193.91;;;4.48;100.00
33155;BME280;19511;42.682;23.332;2023-03-23T04:22:50;95194.59;;;4.41;100.00
33155;BME280;19511;42.682;23.332;2023-03-23T04:25:18;95208.13;;;4.57;100.00
33155;BME280;19511;42.682;23.332;2023-03-23T04:27:46;95197.06;;;4.50;100.00
33155;BME280;19511;42.682;23.332;2023-03-23T04:30:22;95135.03;;;4.07;100.00
33155;BME280;19511;42.682;23.332;2023-03-23T04:32:49;95196.81;;;4.32;100.00
33155;BME280;19511;42.682;23.332;2023-03-23T04:35:22;95168.25;;;4.06;100.00
33155;BME280;19511;42.682;23.332;2023-03-23T04:37:50;95201.13;;;4.33;100.00
33155;BME280;19511;42.682;23.332;2023-03-23T04:40:16;95214.09;;;4.36;100.00
33155;BME280;19511;42.682;23.332;2023-03-23T04:42:43;95207.78;;;4.32;100.00
33155;BME280;19511;42.682;23.332;2023-03-23T04:45:17;95211.59;;;4.27;100.00
33155;BME280;19511;42.682;23.332;2023-03-23T04:47:50;95216.81;;;4.36;100.00
33155;BME280;19511;42.682;23.332;2023-03-23T04:50:26;95229.25;;;4.30;100.00
33155;BME280;19511;42.682;23.332;2023-03-23T04:52:53;95215.25;;;4.35;100.00
33155;BME280;19511;42.682;23.332;2023-03-23T04:55:21;95110.13;;;3.63;100.00
33155;BME280;19511;42.682;23.332;2023-03-23T04:57:47;95222.03;;;4.45;100.00
33155;BME280;19511;42.682;23.332;2023-03-23T05:00:13;95229.31;;;4.60;100.00
33155;BME280;19511;42.682;23.332;2023-03-23T05:02:45;95228.22;;;4.65;100.00
33155;BME280;19511;42.682;23.332;2023-03-23T05:05:13;95217.13;;;4.57;100.00
33155;BME280;19511;42.682;23.332;2023-03-23T05:07:39;95125.91;;;3.96;100.00
33155;BME280;19511;42.682;23.332;2023-03-23T05:10:06;95126.56;;;4.16;100.00
33155;BME280;19511;42.682;23.332;2023-03-23T05:12:33;95218.53;;;4.74;100.00
33155;BME280;19511;42.682;23.332;2023-03-23T05:14:58;95235.50;;;4.84;100.00
33155;BME280;19511;42.682;23.332;2023-03-23T05:17:24;95233.94;;;4.83;100.00
33155;BME280;19511;42.682;23.332;2023-03-23T05:19:53;95231.25;;;4.86;100.00
33155;BME280;19511;42.682;23.332;2023-03-23T05:22:19;95228.84;;;4.85;100.00
33155;BME280;19511;42.682;23.332;2023-03-23T05:24:46;95224.22;;;4.89;100.00
33155;BME280;19511;42.682;23.332;2023-03-23T05:27:12;95235.75;;;5.02;100.00
33155;BME280;19511;42.682;23.332;2023-03-23T05:29:40;95238.53;;;5.05;100.00
33155;BME280;19511;42.682;23.332;2023-03-23T05:32:09;95118.56;;;4.31;100.00
33155;BME280;19511;42.682;23.332;2023-03-23T05:34:36;95214.81;;;4.86;100.00
33155;BME280;19511;42.682;23.332;2023-03-23T05:37:02;95251.88;;;5.07;100.00
33155;BME280;19511;42.682;23.332;2023-03-23T05:39:29;95253.06;;;5.10;100.00
33155;BME280;19511;42.682;23.332;2023-03-23T05:41:55;95146.25;;;4.52;100.00
33155;BME280;19511;42.682;23.332;2023-03-23T05:44:20;95230.63;;;5.00;100.00
33155;BME280;19511;42.682;23.332;2023-03-23T05:46:46;95246.47;;;5.14;100.00
33155;BME280;19511;42.682;23.332;2023-03-23T05:49:12;95259.19;;;5.30;100.00
33155;BME280;19511;42.682;23.332;2023-03-23T05:51:39;95273.09;;;5.44;100.00
33155;BME280;19511;42.682;23.332;2023-03-23T05:54:05;95257.78;;;5.43;100.00
33155;BME280;19511;42.682;23.332;2023-03-23T05:56:30;95257.78;;;5.43;100.00
33155;BME280;19511;42.682;23.332;2023-03-23T05:59:00;95255.88;;;5.47;100.00
33155;BME280;19511;42.682;23.332;2023-03-23T06:01:27;95268.59;;;5.63;100.00
33155;BME280;19511;42.682;23.332;2023-03-23T06:03:53;95252.47;;;5.58;100.00
33155;BME280;19511;42.682;23.332;2023-03-23T06:06:22;95246.78;;;5.77;100.00
33155;BME280;19511;42.682;23.332;2023-03-23T06:08:47;95155.72;;;5.27;100.00
33155;BME280;19511;42.682;23.332;2023-03-23T06:11:15;95171.59;;;5.44;100.00
33155;BME280;19511;42.682;23.332;2023-03-23T06:13:41;95266.25;;;5.99;100.00
33155;BME280;19511;42.682;23.332;2023-03-23T06:16:07;95278.13;;;6.10;100.00
33155;BME280;19511;42.682;23.332;2023-03-23T06:18:34;95274.47;;;5.99;100.00
33155;BME280;19511;42.682;23.332;2023-03-23T06:21:02;95271.50;;;6.15;100.00
33155;BME280;19511;42.682;23.332;2023-03-23T06:23:28;95263.25;;;6.15;100.00
33155;BME280;19511;42.682;23.332;2023-03-23T06:25:59;95266.84;;;6.23;100.00
33155;BME280;19511;42.682;23.332;2023-03-23T06:28:26;95256.22;;;6.17;100.00
33155;BME280;19511;42.682;23.332;2023-03-23T06:30:52;95266.13;;;6.29;100.00
33155;BME280;19511;42.682;23.332;2023-03-23T06:33:18;95269.78;;;6.44;100.00
33155;BME280;19511;42.682;23.332;2023-03-23T06:35:47;95253.22;;;6.37;100.00
33155;BME280;19511;42.682;23.332;2023-03-23T06:38:14;95276.22;;;6.66;100.00
33155;BME280;19511;42.682;23.332;2023-03-23T06:40:39;95270.75;;;6.70;100.00
33155;BME280;19511;42.682;23.332;2023-03-23T06:43:06;95213.50;;;6.24;100.00
33155;BME280;19511;42.682;23.332;2023-03-23T06:45:32;95275.81;;;6.61;100.00
33155;BME280;19511;42.682;23.332;2023-03-23T06:47:57;95259.63;;;6.52;100.00
33155;BME280;19511;42.682;23.332;2023-03-23T06:50:23;95278.66;;;6.75;100.00
33155;BME280;19511;42.682;23.332;2023-03-23T06:52:50;95278.66;;;6.79;100.00
33155;BME280;19511;42.682;23.332;2023-03-23T06:55:16;95296.34;;;6.78;100.00
33155;BME280;19511;42.682;23.332;2023-03-23T06:57:43;95293.25;;;6.86;100.00
33155;BME280;19511;42.682;23.332;2023-03-23T07:00:10;95288.91;;;6.85;100.00
33155;BME280;19511;42.682;23.332;2023-03-23T07:02:38;95272.13;;;6.98;100.00
33155;BME280;19511;42.682;23.332;2023-03-23T07:05:04;95274.13;;;7.08;100.00
33155;BME280;19511;42.682;23.332;2023-03-23T07:07:30;95278.94;;;7.22;100.00
33155;BME280;19511;42.682;23.332;2023-03-23T07:09:56;95278.16;;;7.22;100.00
33155;BME280;19511;42.682;23.332;2023-03-23T07:12:22;95274.25;;;7.30;100.00
33155;BME280;19511;42.682;23.332;2023-03-23T07:14:50;95281.03;;;7.47;100.00
33155;BME280;19511;42.682;23.332;2023-03-23T07:17:16;95279.91;;;7.66;100.00
33155;BME280;19511;42.682;23.332;2023-03-23T07:19:42;95276.38;;;7.73;100.00
33155;BME280;19511;42.682;23.332;2023-03-23T07:22:07;95288.63;;;7.86;100.00
33155;BME280;19511;42.682;23.332;2023-03-23T07:24:34;95269.34;;;7.93;100.00
33155;BME280;19511;42.682;23.332;2023-03-23T07:27:00;95276.09;;;8.17;100.00
33155;BME280;19511;42.682;23.332;2023-03-23T07:29:25;95275.31;;;8.21;100.00
33155;BME280;19511;42.682;23.332;2023-03-23T07:31:54;95268.66;;;8.25;100.00
33155;BME280;19511;42.682;23.332;2023-03-23T07:34:20;95279.28;;;8.45;100.00
33155;BME280;19511;42.682;23.332;2023-03-23T07:36:46;95269.84;;;8.46;100.00
33155;BME280;19511;42.682;23.332;2023-03-23T07:39:12;95249.38;;;8.50;100.00
33155;BME280;19511;42.682;23.332;2023-03-23T07:41:39;95269.84;;;8.53;100.00
33155;BME280;19511;42.682;23.332;2023-03-23T07:44:05;95280.88;;;8.68;100.00
33155;BME280;19511;42.682;23.332;2023-03-23T07:46:31;95271.41;;;8.72;100.00
33155;BME280;19511;42.682;23.332;2023-03-23T07:48:57;95279.69;;;8.83;100.00
33155;BME280;19511;42.682;23.332;2023-03-23T07:51:23;95286.34;;;9.00;100.00
33155;BME280;19511;42.682;23.332;2023-03-23T07:53:51;95272.19;;;9.02;100.00
33155;BME280;19511;42.682;23.332;2023-03-23T07:56:17;95266.22;;;9.18;100.00
33155;BME280;19511;42.682;23.332;2023-03-23T07:58:45;95281.50;;;9.51;100.00
33155;BME280;19511;42.682;23.332;2023-03-23T08:01:11;95119.78;;;8.50;100.00
33155;BME280;19511;42.682;23.332;2023-03-23T08:03:37;95273.56;;;9.64;100.00
33155;BME280;19511;42.682;23.332;2023-03-23T08:06:03;95277.53;;;9.59;100.00
33155;BME280;19511;42.682;23.332;2023-03-23T08:08:29;95271.97;;;9.70;100.00
33155;BME280;19511;42.682;23.332;2023-03-23T08:10:55;95277.78;;;9.90;100.00
33155;BME280;19511;42.682;23.332;2023-03-23T08:13:21;95278.56;;;9.91;100.00
33155;BME280;19511;42.682;23.332;2023-03-23T08:15:46;95274.59;;;9.95;100.00
33155;BME280;19511;42.682;23.332;2023-03-23T08:18:11;95192.72;;;9.56;100.00
33155;BME280;19511;42.682;23.332;2023-03-23T08:20:37;95191.47;;;9.68;100.00
33155;BME280;19511;42.682;23.332;2023-03-23T08:23:03;95189.78;;;9.89;100.00
33155;BME280;19511;42.682;23.332;2023-03-23T08:25:30;95275.78;;;10.61;100.00
33155;BME280;19511;42.682;23.332;2023-03-23T08:28:00;95281.25;;;10.69;100.00
33155;BME280;19511;42.682;23.332;2023-03-23T08:30:28;95257.88;;;10.73;100.00
33155;BME280;19511;42.682;23.332;2023-03-23T08:32:58;95269.50;;;10.99;100.00
33155;BME280;19511;42.682;23.332;2023-03-23T08:35:25;95185.44;;;10.44;100.00
33155;BME280;19511;42.682;23.332;2023-03-23T08:37:51;95172.63;;;10.61;100.00
33155;BME280;19511;42.682;23.332;2023-03-23T08:40:19;95257.47;;;11.17;100.00
33155;BME280;19511;42.682;23.332;2023-03-23T08:42:49;95262.09;;;11.27;100.00
33155;BME280;19511;42.682;23.332;2023-03-23T08:45:18;95258.06;;;11.35;100.00
33155;BME280;19511;42.682;23.332;2023-03-23T08:47:45;95258.56;;;11.61;100.00
33155;BME280;19511;42.682;23.332;2023-03-23T08:50:16;95262.22;;;11.85;100.00
33155;BME280;19511;42.682;23.332;2023-03-23T08:52:43;95262.84;;;12.00;100.00
33155;BME280;19511;42.682;23.332;2023-03-23T08:55:09;95169.94;;;11.30;100.00
33155;BME280;19511;42.682;23.332;2023-03-23T08:57:35;95245.16;;;11.87;100.00
33155;BME280;19511;42.682;23.332;2023-03-23T09:00:07;95175.50;;;11.57;100.00
33155;BME280;19511;42.682;23.332;2023-03-23T09:02:45;95264.84;;;12.27;100.00
33155;BME280;19511;42.682;23.332;2023-03-23T09:05:13;95260.19;;;12.20;100.00
33155;BME280;19511;42.682;23.332;2023-03-23T09:07:41;95192.41;;;11.94;100.00
33155;BME280;19511;42.682;23.332;2023-03-23T09:10:07;95266.09;;;12.50;100.00
33155;BME280;19511;42.682;23.332;2023-03-23T09:12:36;95258.31;;;12.41;100.00
33155;BME280;19511;42.682;23.332;2023-03-23T09:15:06;95248.59;;;12.29;100.00
33155;BME280;19511;42.682;23.332;2023-03-23T09:17:34;95255.16;;;12.39;100.00
33155;BME280;19511;42.682;23.332;2023-03-23T09:20:00;95254.16;;;12.53;100.00
33155;BME280;19511;42.682;23.332;2023-03-23T09:22:28;95265.66;;;12.79;100.00
33155;BME280;19511;42.682;23.332;2023-03-23T09:24:54;95251.94;;;12.92;100.00
33155;BME280;19511;42.682;23.332;2023-03-23T09:27:19;95180.44;;;12.28;100.00
33155;BME280;19511;42.682;23.332;2023-03-23T09:29:45;95188.34;;;12.02;100.00
33155;BME280;19511;42.682;23.332;2023-03-23T09:32:15;95256.63;;;12.47;100.00
33155;BME280;19511;42.682;23.332;2023-03-23T09:34:41;95241.81;;;12.30;100.00
33155;BME280;19511;42.682;23.332;2023-03-23T09:37:06;95245.75;;;12.05;100.00
33155;BME280;19511;42.682;23.332;2023-03-23T09:39:32;95238.25;;;12.02;100.00
33155;BME280;19511;42.682;23.332;2023-03-23T09:45:08;95245.88;;;12.25;100.00
33155;BME280;19511;42.682;23.332;2023-03-23T09:50:44;95233.97;;;12.25;100.00
33155;BME280;19511;42.682;23.332;2023-03-23T09:53:18;95187.53;;;12.05;100.00
33155;BME280;19511;42.682;23.332;2023-03-23T09:55:45;95233.28;;;12.68;100.00
33155;BME280;19511;42.682;23.332;2023-03-23T09:58:39;95230.16;;;12.90;100.00
33155;BME280;19511;42.682;23.332;2023-03-23T10:03:42;95223.16;;;13.05;100.00
33155;BME280;19511;42.682;23.332;2023-03-23T10:06:11;95223.72;;;13.17;100.00
33155;BME280;19511;42.682;23.332;2023-03-23T10:08:52;95224.56;;;13.14;100.00
33155;BME280;19511;42.682;23.332;2023-03-23T10:16:42;95237.06;;;13.46;100.00
33155;BME280;19511;42.682;23.332;2023-03-23T10:19:46;95225.63;;;13.44;100.00
33155;BME280;19511;42.682;23.332;2023-03-23T10:22:17;95173.75;;;13.17;100.00
33155;BME280;19511;42.682;23.332;2023-03-23T10:25:07;95222.06;;;13.63;100.00
33155;BME280;19511;42.682;23.332;2023-03-23T10:27:48;95216.97;;;13.78;100.00
33155;BME280;19511;42.682;23.332;2023-03-23T10:30:38;95219.19;;;13.67;99.26
33155;BME280;19511;42.682;23.332;2023-03-23T10:35:38;95218.50;;;13.43;100.00
33155;BME280;19511;42.682;23.332;2023-03-23T10:38:24;95141.94;;;12.78;100.00
33155;BME280;19511;42.682;23.332;2023-03-23T10:41:00;95137.13;;;12.82;100.00
33155;BME280;19511;42.682;23.332;2023-03-23T10:43:30;95214.00;;;13.49;100.00
33155;BME280;19511;42.682;23.332;2023-03-23T10:48:40;95207.50;;;13.76;100.00
33155;BME280;19511;42.682;23.332;2023-03-23T10:51:14;95216.34;;;13.70;99.74
33155;BME280;19511;42.682;23.332;2023-03-23T10:56:28;95201.25;;;13.51;98.95
33155;BME280;19511;42.682;23.332;2023-03-23T10:58:59;95189.63;;;13.57;99.75
33155;BME280;19511;42.682;23.332;2023-03-23T11:01:31;95140.81;;;13.35;98.14
33155;BME280;19511;42.682;23.332;2023-03-23T11:03:57;95137.41;;;13.48;98.42
33155;BME280;19511;42.682;23.332;2023-03-23T11:06:45;95204.75;;;13.92;99.93
33155;BME280;19511;42.682;23.332;2023-03-23T11:09:14;95205.28;;;13.87;97.97
33155;BME280;19511;42.682;23.332;2023-03-23T11:11:42;95208.50;;;13.65;97.36
33155;BME280;19511;42.682;23.332;2023-03-23T11:14:26;95199.13;;;13.59;96.15
33155;BME280;19511;42.682;23.332;2023-03-23T11:17:03;95186.84;;;13.36;99.02
33155;BME280;19511;42.682;23.332;2023-03-23T11:19:32;95195.81;;;13.64;97.96
33155;BME280;19511;42.682;23.332;2023-03-23T11:24:33;95105.72;;;13.05;97.97
33155;BME280;19511;42.682;23.332;2023-03-23T11:26:59;95176.66;;;13.70;98.06
33155;BME280;19511;42.682;23.332;2023-03-23T11:29:27;95166.69;;;13.73;97.21
33155;BME280;19511;42.682;23.332;2023-03-23T11:32:14;95166.88;;;13.82;99.48
33155;BME280;19511;42.682;23.332;2023-03-23T11:34:45;95080.97;;;13.51;99.74
33155;BME280;19511;42.682;23.332;2023-03-23T11:37:29;95168.91;;;14.14;100.00
33155;BME280;19511;42.682;23.332;2023-03-23T11:42:34;95166.91;;;14.31;95.63
33155;BME280;19511;42.682;23.332;2023-03-23T11:48:25;95158.66;;;14.28;94.03
33155;BME280;19511;42.682;23.332;2023-03-23T11:51:05;95163.25;;;14.34;93.71
33155;BME280;19511;42.682;23.332;2023-03-23T11:56:24;95157.97;;;14.57;98.93
33155;BME280;19511;42.682;23.332;2023-03-23T11:58:50;95160.94;;;14.66;95.37
33155;BME280;19511;42.682;23.332;2023-03-23T12:04:31;95070.50;;;14.25;96.65
33155;BME280;19511;42.682;23.332;2023-03-23T12:07:35;95147.06;;;14.79;97.83
33155;BME280;19511;42.682;23.332;2023-03-23T12:21:35;95131.44;;;14.68;91.37
33155;BME280;19511;42.682;23.332;2023-03-23T12:27:16;95132.88;;;14.90;91.38
33155;BME280;19511;42.682;23.332;2023-03-23T12:30:29;95132.03;;;15.06;89.47
33155;BME280;19511;42.682;23.332;2023-03-23T12:32:49;95135.25;;;15.04;91.31
33155;BME280;19511;42.682;23.332;2023-03-23T12:35:28;95131.53;;;14.94;92.35
33155;BME280;19511;42.682;23.332;2023-03-23T12:41:12;95131.94;;;14.80;88.07
33155;BME280;19511;42.682;23.332;2023-03-23T12:43:59;95118.50;;;14.91;88.63
33155;BME280;19511;42.682;23.332;2023-03-23T12:52:52;95120.28;;;14.68;86.80
33155;BME280;19511;42.682;23.332;2023-03-23T12:58:19;95106.72;;;14.71;87.52
33155;BME280;19511;42.682;23.332;2023-03-23T13:03:40;95110.34;;;14.84;88.01
33155;BME280;19511;42.682;23.332;2023-03-23T13:06:08;95091.88;;;14.90;86.71
33155;BME280;19511;42.682;23.332;2023-03-23T13:08:37;95097.63;;;15.12;88.67
33155;BME280;19511;42.682;23.332;2023-03-23T13:11:10;95091.06;;;15.19;87.75
33155;BME280;19511;42.682;23.332;2023-03-23T13:13:48;95060.63;;;15.12;88.33
33155;BME280;19511;42.682;23.332;2023-03-23T13:19:29;95088.13;;;15.52;85.99
33155;BME280;19511;42.682;23.332;2023-03-23T13:22:09;95017.69;;;14.96;84.86
33155;BME280;19511;42.682;23.332;2023-03-23T13:24:49;95086.97;;;15.37;85.74
33155;BME280;19511;42.682;23.332;2023-03-23T13:27:16;95081.06;;;15.34;85.58
33155;BME280;19511;42.682;23.332;2023-03-23T13:29:49;95067.00;;;15.25;85.55
33155;BME280;19511;42.682;23.332;2023-03-23T13:32:19;95083.31;;;15.40;86.88
33155;BME280;19511;42.682;23.332;2023-03-23T13:35:02;95072.59;;;15.25;84.80
33155;BME280;19511;42.682;23.332;2023-03-23T13:37:28;95085.63;;;15.28;87.88
33155;BME280;19511;42.682;23.332;2023-03-23T13:39:57;95073.44;;;15.22;88.39
33155;BME280;19511;42.682;23.332;2023-03-23T13:42:28;95083.31;;;15.40;85.65
33155;BME280;19511;42.682;23.332;2023-03-23T13:47:41;95070.06;;;15.70;84.42
33155;BME280;19511;42.682;23.332;2023-03-23T14:03:14;95063.72;;;15.82;84.36
33155;BME280;19511;42.682;23.332;2023-03-23T14:16:21;95056.03;;;15.86;80.42
33155;BME280;19511;42.682;23.332;2023-03-23T14:18:55;95057.00;;;15.66;84.54
33155;BME280;19511;42.682;23.332;2023-03-23T14:21:30;95049.53;;;15.63;85.81
33155;BME280;19511;42.682;23.332;2023-03-23T14:24:26;95061.34;;;15.67;86.80
33155;BME280;19511;42.682;23.332;2023-03-23T14:27:22;95054.56;;;15.68;82.82
33155;BME280;19511;42.682;23.332;2023-03-23T14:29:59;95033.03;;;15.69;80.98
33155;BME280;19511;42.682;23.332;2023-03-23T14:32:25;95032.47;;;15.61;82.98
33155;BME280;19511;42.682;23.332;2023-03-23T14:34:54;95048.97;;;15.68;86.63
33155;BME280;19511;42.682;23.332;2023-03-23T14:37:23;95036.94;;;15.59;86.62
33155;BME280;19511;42.682;23.332;2023-03-23T14:39:53;95054.44;;;15.72;85.47
33155;BME280;19511;42.682;23.332;2023-03-23T14:42:30;95044.97;;;15.70;84.27
33155;BME280;19511;42.682;23.332;2023-03-23T14:44:57;95033.94;;;15.66;85.59
33155;BME280;19511;42.682;23.332;2023-03-23T14:47:33;95052.66;;;15.65;85.11
33155;BME280;19511;42.682;23.332;2023-03-23T14:50:01;95059.47;;;15.64;86.22
33155;BME280;19511;42.682;23.332;2023-03-23T14:52:34;95046.19;;;15.56;83.15
33155;BME280;19511;42.682;23.332;2023-03-23T14:55:33;95048.22;;;15.68;84.00